sensor_id;sensor_type;location;lat;lon;timestamp;P1;durP1;ratioP1;P2;durP2;ratioP2
13147;SDS011;6639;50.956;4.242;2024-03-08T00:00:33;15.80;;;12.45;;
13147;SDS011;6639;50.956;4.242;2024-03-08T00:03:02;17.67;;;13.00;;
13147;SDS011;6639;50.956;4.242;2024-03-08T00:05:29;16.95;;;12.38;;
13147;SDS011;6639;50.956;4.242;2024-03-08T00:07:56;19.27;;;13.57;;
13147;SDS011;6639;50.956;4.242;2024-03-08T00:10:25;19.33;;;13.45;;
13147;SDS011;6639;50.956;4.242;2024-03-08T00:12:53;15.00;;;12.05;;
13147;SDS011;6639;50.956;4.242;2024-03-08T00:15:20;17.98;;;13.70;;
13147;SDS011;6639;50.956;4.242;2024-03-08T00:17:48;19.25;;;13.77;;
13147;SDS011;6639;50.956;4.242;2024-03-08T00:20:37;18.98;;;13.18;;
13147;SDS011;6639;50.956;4.242;2024-03-08T00:23:21;20.55;;;14.07;;
13147;SDS011;6639;50.956;4.242;2024-03-08T00:26:03;17.02;;;12.93;;
13147;SDS011;6639;50.956;4.242;2024-03-08T00:28:35;18.35;;;13.23;;
13147;SDS011;6639;50.956;4.242;2024-03-08T00:31:04;17.92;;;14.10;;
13147;SDS011;6639;50.956;4.242;2024-03-08T00:33:32;19.90;;;13.23;;
13147;SDS011;6639;50.956;4.242;2024-03-08T00:36:00;19.08;;;14.30;;
13147;SDS011;6639;50.956;4.242;2024-03-08T00:38:30;21.67;;;14.43;;
13147;SDS011;6639;50.956;4.242;2024-03-08T00:40:59;22.25;;;15.30;;
13147;SDS011;6639;50.956;4.242;2024-03-08T00:43:27;21.13;;;15.05;;
13147;SDS011;6639;50.956;4.242;2024-03-08T00:45:55;20.10;;;13.95;;
13147;SDS011;6639;50.956;4.242;2024-03-08T00:48:22;22.50;;;15.20;;
13147;SDS011;6639;50.956;4.242;2024-03-08T00:50:50;21.38;;;15.50;;
13147;SDS011;6639;50.956;4.242;2024-03-08T00:53:18;20.02;;;14.52;;
13147;SDS011;6639;50.956;4.242;2024-03-08T00:55:47;25.67;;;15.30;;
13147;SDS011;6639;50.956;4.242;2024-03-08T00:58:15;19.50;;;15.13;;
13147;SDS011;6639;50.956;4.242;2024-03-08T01:00:42;23.08;;;15.38;;
13147;SDS011;6639;50.956;4.242;2024-03-08T01:03:09;22.35;;;15.98;;
13147;SDS011;6639;50.956;4.242;2024-03-08T01:05:37;22.77;;;15.80;;
13147;SDS011;6639;50.956;4.242;2024-03-08T01:08:04;23.98;;;15.85;;
13147;SDS011;6639;50.956;4.242;2024-03-08T01:10:34;18.80;;;14.48;;
13147;SDS011;6639;50.956;4.242;2024-03-08T01:13:02;20.40;;;15.93;;
13147;SDS011;6639;50.956;4.242;2024-03-08T01:15:29;20.70;;;15.02;;
13147;SDS011;6639;50.956;4.242;2024-03-08T01:17:56;21.83;;;15.40;;
13147;SDS011;6639;50.956;4.242;2024-03-08T01:20:23;23.02;;;14.35;;
13147;SDS011;6639;50.956;4.242;2024-03-08T01:22:50;23.60;;;15.88;;
13147;SDS011;6639;50.956;4.242;2024-03-08T01:25:18;22.50;;;16.17;;
13147;SDS011;6639;50.956;4.242;2024-03-08T01:27:46;22.65;;;15.85;;
13147;SDS011;6639;50.956;4.242;2024-03-08T01:30:13;26.00;;;16.67;;
13147;SDS011;6639;50.956;4.242;2024-03-08T01:32:42;21.83;;;15.07;;
13147;SDS011;6639;50.956;4.242;2024-03-08T01:35:09;21.27;;;16.00;;
13147;SDS011;6639;50.956;4.242;2024-03-08T01:37:36;23.10;;;15.75;;
13147;SDS011;6639;50.956;4.242;2024-03-08T01:40:06;21.90;;;15.60;;
13147;SDS011;6639;50.956;4.242;2024-03-08T01:42:34;19.83;;;14.82;;
13147;SDS011;6639;50.956;4.242;2024-03-08T01:45:05;22.33;;;16.00;;
13147;SDS011;6639;50.956;4.242;2024-03-08T01:47:32;24.13;;;16.02;;
13147;SDS011;6639;50.956;4.242;2024-03-08T01:50:00;23.08;;;15.80;;
13147;SDS011;6639;50.956;4.242;2024-03-08T01:52:29;25.58;;;16.27;;
13147;SDS011;6639;50.956;4.242;2024-03-08T01:54:58;20.65;;;15.50;;
13147;SDS011;6639;50.956;4.242;2024-03-08T01:57:27;21.98;;;15.68;;
13147;SDS011;6639;50.956;4.242;2024-03-08T01:59:55;22.50;;;16.02;;
13147;SDS011;6639;50.956;4.242;2024-03-08T02:02:24;21.95;;;16.23;;
13147;SDS011;6639;50.956;4.242;2024-03-08T02:04:52;23.85;;;16.00;;
13147;SDS011;6639;50.956;4.242;2024-03-08T02:07:19;24.13;;;16.67;;
13147;SDS011;6639;50.956;4.242;2024-03-08T02:09:47;22.20;;;16.30;;
13147;SDS011;6639;50.956;4.242;2024-03-08T02:12:14;24.00;;;17.83;;
13147;SDS011;6639;50.956;4.242;2024-03-08T02:14:41;23.45;;;16.15;;
13147;SDS011;6639;50.956;4.242;2024-03-08T02:17:09;21.70;;;15.65;;
13147;SDS011;6639;50.956;4.242;2024-03-08T02:19:38;20.08;;;15.32;;
13147;SDS011;6639;50.956;4.242;2024-03-08T02:22:06;22.27;;;15.93;;
13147;SDS011;6639;50.956;4.242;2024-03-08T02:24:34;20.35;;;15.90;;
13147;SDS011;6639;50.956;4.242;2024-03-08T02:27:01;19.40;;;16.10;;
13147;SDS011;6639;50.956;4.242;2024-03-08T02:29:28;24.77;;;17.33;;
13147;SDS011;6639;50.956;4.242;2024-03-08T02:31:56;23.30;;;17.15;;
13147;SDS011;6639;50.956;4.242;2024-03-08T02:34:23;20.65;;;16.40;;
13147;SDS011;6639;50.956;4.242;2024-03-08T02:36:50;23.40;;;16.77;;
13147;SDS011;6639;50.956;4.242;2024-03-08T02:39:19;21.52;;;16.58;;
13147;SDS011;6639;50.956;4.242;2024-03-08T02:41:47;21.42;;;17.13;;
13147;SDS011;6639;50.956;4.242;2024-03-08T02:44:14;20.83;;;16.60;;
13147;SDS011;6639;50.956;4.242;2024-03-08T02:46:41;23.40;;;17.58;;
13147;SDS011;6639;50.956;4.242;2024-03-08T02:49:08;21.17;;;16.75;;
13147;SDS011;6639;50.956;4.242;2024-03-08T02:51:36;18.13;;;16.23;;
13147;SDS011;6639;50.956;4.242;2024-03-08T02:54:04;22.60;;;17.35;;
13147;SDS011;6639;50.956;4.242;2024-03-08T02:56:32;19.52;;;16.73;;
13147;SDS011;6639;50.956;4.242;2024-03-08T02:59:00;22.25;;;16.98;;
13147;SDS011;6639;50.956;4.242;2024-03-08T03:01:28;21.20;;;17.63;;
13147;SDS011;6639;50.956;4.242;2024-03-08T03:03:55;21.88;;;17.55;;
13147;SDS011;6639;50.956;4.242;2024-03-08T03:06:21;20.70;;;17.15;;
13147;SDS011;6639;50.956;4.242;2024-03-08T03:08:48;22.08;;;16.67;;
13147;SDS011;6639;50.956;4.242;2024-03-08T03:11:16;22.50;;;17.25;;
13147;SDS011;6639;50.956;4.242;2024-03-08T03:13:44;19.20;;;17.07;;
13147;SDS011;6639;50.956;4.242;2024-03-08T03:16:16;21.10;;;16.50;;
13147;SDS011;6639;50.956;4.242;2024-03-08T03:18:44;20.52;;;17.30;;
13147;SDS011;6639;50.956;4.242;2024-03-08T03:21:12;21.30;;;17.10;;
13147;SDS011;6639;50.956;4.242;2024-03-08T03:23:39;21.60;;;17.15;;
13147;SDS011;6639;50.956;4.242;2024-03-08T03:26:07;23.70;;;17.20;;
13147;SDS011;6639;50.956;4.242;2024-03-08T03:28:36;22.27;;;16.83;;
13147;SDS011;6639;50.956;4.242;2024-03-08T03:31:05;20.90;;;17.63;;
13147;SDS011;6639;50.956;4.242;2024-03-08T03:33:32;20.70;;;16.38;;
13147;SDS011;6639;50.956;4.242;2024-03-08T03:36:03;21.90;;;17.00;;
13147;SDS011;6639;50.956;4.242;2024-03-08T03:38:31;22.90;;;17.95;;
13147;SDS011;6639;50.956;4.242;2024-03-08T03:40:59;20.75;;;17.38;;
13147;SDS011;6639;50.956;4.242;2024-03-08T03:43:35;23.83;;;18.20;;
13147;SDS011;6639;50.956;4.242;2024-03-08T03:46:02;24.57;;;17.80;;
13147;SDS011;6639;50.956;4.242;2024-03-08T03:48:35;23.02;;;17.92;;
13147;SDS011;6639;50.956;4.242;2024-03-08T03:51:02;24.73;;;18.52;;
13147;SDS011;6639;50.956;4.242;2024-03-08T03:53:29;21.33;;;18.20;;
13147;SDS011;6639;50.956;4.242;2024-03-08T03:55:56;20.23;;;17.38;;
13147;SDS011;6639;50.956;4.242;2024-03-08T03:58:24;22.80;;;17.00;;
13147;SDS011;6639;50.956;4.242;2024-03-08T04:00:52;22.73;;;17.73;;
13147;SDS011;6639;50.956;4.242;2024-03-08T04:03:20;22.23;;;17.52;;
13147;SDS011;6639;50.956;4.242;2024-03-08T04:05:47;21.63;;;17.20;;
13147;SDS011;6639;50.956;4.242;2024-03-08T04:08:14;21.53;;;18.70;;
13147;SDS011;6639;50.956;4.242;2024-03-08T04:10:42;22.93;;;17.53;;
13147;SDS011;6639;50.956;4.242;2024-03-08T04:13:09;20.90;;;17.67;;
13147;SDS011;6639;50.956;4.242;2024-03-08T04:15:36;25.98;;;17.80;;
13147;SDS011;6639;50.956;4.242;2024-03-08T04:18:03;21.40;;;17.83;;
13147;SDS011;6639;50.956;4.242;2024-03-08T04:20:32;21.55;;;17.88;;
13147;SDS011;6639;50.956;4.242;2024-03-08T04:22:59;20.90;;;17.77;;
13147;SDS011;6639;50.956;4.242;2024-03-08T04:25:26;21.88;;;18.60;;
13147;SDS011;6639;50.956;4.242;2024-03-08T04:27:53;22.27;;;18.05;;
13147;SDS011;6639;50.956;4.242;2024-03-08T04:30:20;23.07;;;18.80;;
13147;SDS011;6639;50.956;4.242;2024-03-08T04:32:47;24.55;;;18.63;;
13147;SDS011;6639;50.956;4.242;2024-03-08T04:35:14;20.07;;;17.10;;
13147;SDS011;6639;50.956;4.242;2024-03-08T04:37:43;22.52;;;17.73;;
13147;SDS011;6639;50.956;4.242;2024-03-08T04:40:10;23.73;;;18.70;;
13147;SDS011;6639;50.956;4.242;2024-03-08T04:42:38;22.13;;;17.27;;
13147;SDS011;6639;50.956;4.242;2024-03-08T04:45:06;22.83;;;18.73;;
13147;SDS011;6639;50.956;4.242;2024-03-08T04:47:36;22.80;;;18.02;;
13147;SDS011;6639;50.956;4.242;2024-03-08T04:50:03;23.73;;;18.35;;
13147;SDS011;6639;50.956;4.242;2024-03-08T04:52:30;22.73;;;17.85;;
13147;SDS011;6639;50.956;4.242;2024-03-08T04:55:00;23.90;;;18.03;;
13147;SDS011;6639;50.956;4.242;2024-03-08T04:57:29;22.37;;;17.23;;
13147;SDS011;6639;50.956;4.242;2024-03-08T04:59:57;22.27;;;16.63;;
13147;SDS011;6639;50.956;4.242;2024-03-08T05:02:24;21.40;;;16.73;;
13147;SDS011;6639;50.956;4.242;2024-03-08T05:04:51;22.90;;;17.20;;
13147;SDS011;6639;50.956;4.242;2024-03-08T05:07:18;22.25;;;17.40;;
13147;SDS011;6639;50.956;4.242;2024-03-08T05:09:45;20.83;;;17.83;;
13147;SDS011;6639;50.956;4.242;2024-03-08T05:12:18;23.33;;;17.80;;
13147;SDS011;6639;50.956;4.242;2024-03-08T05:14:45;19.90;;;15.77;;
13147;SDS011;6639;50.956;4.242;2024-03-08T05:17:14;19.00;;;16.13;;
13147;SDS011;6639;50.956;4.242;2024-03-08T05:19:41;24.77;;;17.83;;
13147;SDS011;6639;50.956;4.242;2024-03-08T05:22:08;21.80;;;15.88;;
13147;SDS011;6639;50.956;4.242;2024-03-08T05:24:35;20.00;;;16.73;;
13147;SDS011;6639;50.956;4.242;2024-03-08T05:27:03;22.90;;;17.23;;
13147;SDS011;6639;50.956;4.242;2024-03-08T05:29:31;22.45;;;18.77;;
13147;SDS011;6639;50.956;4.242;2024-03-08T05:31:58;19.37;;;16.67;;
13147;SDS011;6639;50.956;4.242;2024-03-08T05:34:26;23.20;;;17.13;;
13147;SDS011;6639;50.956;4.242;2024-03-08T05:36:53;24.63;;;18.90;;
13147;SDS011;6639;50.956;4.242;2024-03-08T05:39:20;20.40;;;17.57;;
13147;SDS011;6639;50.956;4.242;2024-03-08T05:41:48;23.20;;;17.73;;
13147;SDS011;6639;50.956;4.242;2024-03-08T05:44:15;22.30;;;17.48;;
13147;SDS011;6639;50.956;4.242;2024-03-08T05:46:44;25.87;;;19.53;;
13147;SDS011;6639;50.956;4.242;2024-03-08T05:49:12;24.63;;;18.40;;
13147;SDS011;6639;50.956;4.242;2024-03-08T05:51:39;23.63;;;17.67;;
13147;SDS011;6639;50.956;4.242;2024-03-08T05:54:07;25.77;;;18.37;;
13147;SDS011;6639;50.956;4.242;2024-03-08T05:56:35;21.33;;;17.17;;
13147;SDS011;6639;50.956;4.242;2024-03-08T05:59:02;23.67;;;18.90;;
13147;SDS011;6639;50.956;4.242;2024-03-08T06:01:29;20.13;;;16.23;;
13147;SDS011;6639;50.956;4.242;2024-03-08T06:03:59;21.90;;;17.90;;
13147;SDS011;6639;50.956;4.242;2024-03-08T06:06:26;25.83;;;18.10;;
13147;SDS011;6639;50.956;4.242;2024-03-08T06:08:53;24.05;;;18.85;;
13147;SDS011;6639;50.956;4.242;2024-03-08T06:11:21;22.67;;;17.30;;
13147;SDS011;6639;50.956;4.242;2024-03-08T06:13:48;23.27;;;18.20;;
13147;SDS011;6639;50.956;4.242;2024-03-08T06:16:15;23.02;;;18.38;;
13147;SDS011;6639;50.956;4.242;2024-03-08T06:18:42;26.80;;;17.42;;
13147;SDS011;6639;50.956;4.242;2024-03-08T06:21:11;21.83;;;18.10;;
13147;SDS011;6639;50.956;4.242;2024-03-08T06:23:39;22.35;;;18.48;;
13147;SDS011;6639;50.956;4.242;2024-03-08T06:26:06;20.63;;;16.83;;
13147;SDS011;6639;50.956;4.242;2024-03-08T06:28:33;25.02;;;18.08;;
13147;SDS011;6639;50.956;4.242;2024-03-08T06:31:01;23.03;;;17.07;;
13147;SDS011;6639;50.956;4.242;2024-03-08T06:33:28;25.15;;;19.30;;
13147;SDS011;6639;50.956;4.242;2024-03-08T06:35:55;23.38;;;18.60;;
13147;SDS011;6639;50.956;4.242;2024-03-08T06:38:24;26.73;;;18.73;;
13147;SDS011;6639;50.956;4.242;2024-03-08T06:40:51;23.77;;;17.70;;
13147;SDS011;6639;50.956;4.242;2024-03-08T06:43:19;24.57;;;19.17;;
13147;SDS011;6639;50.956;4.242;2024-03-08T06:45:46;23.85;;;19.40;;
13147;SDS011;6639;50.956;4.242;2024-03-08T06:48:14;23.70;;;19.13;;
13147;SDS011;6639;50.956;4.242;2024-03-08T06:50:42;24.10;;;18.13;;
13147;SDS011;6639;50.956;4.242;2024-03-08T06:53:09;22.88;;;17.83;;
13147;SDS011;6639;50.956;4.242;2024-03-08T06:55:37;23.58;;;17.38;;
13147;SDS011;6639;50.956;4.242;2024-03-08T06:58:05;24.75;;;18.10;;
13147;SDS011;6639;50.956;4.242;2024-03-08T07:00:32;23.10;;;19.67;;
13147;SDS011;6639;50.956;4.242;2024-03-08T07:02:59;21.52;;;18.23;;
13147;SDS011;6639;50.956;4.242;2024-03-08T07:05:26;20.02;;;16.75;;
13147;SDS011;6639;50.956;4.242;2024-03-08T07:07:53;22.33;;;18.17;;
13147;SDS011;6639;50.956;4.242;2024-03-08T07:10:20;20.90;;;17.77;;
13147;SDS011;6639;50.956;4.242;2024-03-08T07:12:51;19.50;;;16.88;;
13147;SDS011;6639;50.956;4.242;2024-03-08T07:15:18;22.23;;;17.33;;
13147;SDS011;6639;50.956;4.242;2024-03-08T07:17:46;20.77;;;16.17;;
13147;SDS011;6639;50.956;4.242;2024-03-08T07:20:13;18.80;;;16.48;;
13147;SDS011;6639;50.956;4.242;2024-03-08T07:22:43;21.60;;;17.95;;
13147;SDS011;6639;50.956;4.242;2024-03-08T07:25:12;22.30;;;15.68;;
13147;SDS011;6639;50.956;4.242;2024-03-08T07:27:51;18.15;;;15.50;;
13147;SDS011;6639;50.956;4.242;2024-03-08T07:30:19;21.88;;;16.55;;
13147;SDS011;6639;50.956;4.242;2024-03-08T07:33:06;20.80;;;16.05;;
13147;SDS011;6639;50.956;4.242;2024-03-08T07:35:36;21.67;;;16.25;;
13147;SDS011;6639;50.956;4.242;2024-03-08T07:38:04;19.15;;;16.58;;
13147;SDS011;6639;50.956;4.242;2024-03-08T07:40:31;20.08;;;15.85;;
13147;SDS011;6639;50.956;4.242;2024-03-08T07:43:00;21.13;;;16.20;;
13147;SDS011;6639;50.956;4.242;2024-03-08T07:45:27;19.40;;;15.93;;
13147;SDS011;6639;50.956;4.242;2024-03-08T07:47:55;17.80;;;15.75;;
13147;SDS011;6639;50.956;4.242;2024-03-08T07:50:23;19.92;;;15.43;;
13147;SDS011;6639;50.956;4.242;2024-03-08T07:52:50;21.13;;;16.38;;
13147;SDS011;6639;50.956;4.242;2024-03-08T07:55:16;18.80;;;15.27;;
13147;SDS011;6639;50.956;4.242;2024-03-08T07:57:44;18.55;;;15.80;;
13147;SDS011;6639;50.956;4.242;2024-03-08T08:00:14;16.48;;;14.60;;
13147;SDS011;6639;50.956;4.242;2024-03-08T08:02:44;20.08;;;15.18;;
13147;SDS011;6639;50.956;4.242;2024-03-08T08:05:11;17.95;;;14.70;;
13147;SDS011;6639;50.956;4.242;2024-03-08T08:07:38;21.75;;;16.23;;
13147;SDS011;6639;50.956;4.242;2024-03-08T08:10:08;20.27;;;16.17;;
13147;SDS011;6639;50.956;4.242;2024-03-08T08:12:41;18.58;;;15.98;;
13147;SDS011;6639;50.956;4.242;2024-03-08T08:15:09;19.02;;;15.75;;
13147;SDS011;6639;50.956;4.242;2024-03-08T08:17:37;18.67;;;14.65;;
13147;SDS011;6639;50.956;4.242;2024-03-08T08:20:05;17.75;;;14.90;;
13147;SDS011;6639;50.956;4.242;2024-03-08T08:22:32;18.52;;;15.95;;
13147;SDS011;6639;50.956;4.242;2024-03-08T08:24:59;18.25;;;16.15;;
13147;SDS011;6639;50.956;4.242;2024-03-08T08:27:26;18.08;;;15.68;;
13147;SDS011;6639;50.956;4.242;2024-03-08T08:29:53;23.50;;;15.13;;
13147;SDS011;6639;50.956;4.242;2024-03-08T08:32:21;17.73;;;15.23;;
13147;SDS011;6639;50.956;4.242;2024-03-08T08:34:49;18.75;;;14.75;;
13147;SDS011;6639;50.956;4.242;2024-03-08T08:37:16;16.85;;;14.57;;
13147;SDS011;6639;50.956;4.242;2024-03-08T08:39:43;18.25;;;15.48;;
13147;SDS011;6639;50.956;4.242;2024-03-08T08:42:10;20.95;;;15.48;;
13147;SDS011;6639;50.956;4.242;2024-03-08T08:44:38;17.83;;;14.95;;
13147;SDS011;6639;50.956;4.242;2024-03-08T08:47:05;18.63;;;15.02;;
13147;SDS011;6639;50.956;4.242;2024-03-08T08:49:34;18.08;;;15.00;;
13147;SDS011;6639;50.956;4.242;2024-03-08T08:52:02;18.52;;;15.70;;
13147;SDS011;6639;50.956;4.242;2024-03-08T08:54:30;17.77;;;14.75;;
13147;SDS011;6639;50.956;4.242;2024-03-08T08:56:57;19.65;;;14.73;;
13147;SDS011;6639;50.956;4.242;2024-03-08T08:59:24;19.80;;;16.27;;
13147;SDS011;6639;50.956;4.242;2024-03-08T09:01:51;17.30;;;14.35;;
13147;SDS011;6639;50.956;4.242;2024-03-08T09:04:19;18.40;;;14.80;;
13147;SDS011;6639;50.956;4.242;2024-03-08T09:06:48;16.63;;;13.65;;
13147;SDS011;6639;50.956;4.242;2024-03-08T09:09:16;18.08;;;15.25;;
13147;SDS011;6639;50.956;4.242;2024-03-08T09:11:44;16.83;;;13.73;;
13147;SDS011;6639;50.956;4.242;2024-03-08T09:14:11;17.27;;;15.30;;
13147;SDS011;6639;50.956;4.242;2024-03-08T09:16:39;20.75;;;15.63;;
13147;SDS011;6639;50.956;4.242;2024-03-08T09:19:06;15.98;;;14.18;;
13147;SDS011;6639;50.956;4.242;2024-03-08T09:21:36;18.13;;;14.18;;
13147;SDS011;6639;50.956;4.242;2024-03-08T09:24:05;16.92;;;13.93;;
13147;SDS011;6639;50.956;4.242;2024-03-08T09:26:34;16.88;;;14.68;;
13147;SDS011;6639;50.956;4.242;2024-03-08T09:29:02;18.65;;;15.02;;
13147;SDS011;6639;50.956;4.242;2024-03-08T09:31:30;16.85;;;14.23;;
13147;SDS011;6639;50.956;4.242;2024-03-08T09:33:57;19.50;;;13.90;;
13147;SDS011;6639;50.956;4.242;2024-03-08T09:36:24;15.88;;;14.15;;
13147;SDS011;6639;50.956;4.242;2024-03-08T09:38:52;15.80;;;14.13;;
13147;SDS011;6639;50.956;4.242;2024-03-08T09:41:19;16.20;;;13.55;;
13147;SDS011;6639;50.956;4.242;2024-03-08T09:43:47;16.75;;;13.82;;
13147;SDS011;6639;50.956;4.242;2024-03-08T09:46:15;14.70;;;12.68;;
13147;SDS011;6639;50.956;4.242;2024-03-08T09:48:44;15.88;;;13.05;;
13147;SDS011;6639;50.956;4.242;2024-03-08T09:51:12;15.95;;;14.25;;
13147;SDS011;6639;50.956;4.242;2024-03-08T09:53:40;17.25;;;13.55;;
13147;SDS011;6639;50.956;4.242;2024-03-08T09:56:08;15.77;;;13.30;;
13147;SDS011;6639;50.956;4.242;2024-03-08T09:58:37;15.50;;;13.05;;
13147;SDS011;6639;50.956;4.242;2024-03-08T10:01:20;14.48;;;12.90;;
13147;SDS011;6639;50.956;4.242;2024-03-08T10:03:47;14.27;;;12.73;;
13147;SDS011;6639;50.956;4.242;2024-03-08T10:06:15;14.75;;;12.82;;
13147;SDS011;6639;50.956;4.242;2024-03-08T10:08:43;14.85;;;12.43;;
13147;SDS011;6639;50.956;4.242;2024-03-08T10:11:11;15.07;;;12.43;;
13147;SDS011;6639;50.956;4.242;2024-03-08T10:13:38;18.30;;;14.02;;
13147;SDS011;6639;50.956;4.242;2024-03-08T10:16:06;16.05;;;13.93;;
13147;SDS011;6639;50.956;4.242;2024-03-08T10:18:35;16.73;;;14.13;;
13147;SDS011;6639;50.956;4.242;2024-03-08T10:21:02;13.82;;;12.43;;
13147;SDS011;6639;50.956;4.242;2024-03-08T10:23:31;14.82;;;12.85;;
13147;SDS011;6639;50.956;4.242;2024-03-08T10:26:09;16.38;;;13.25;;
13147;SDS011;6639;50.956;4.242;2024-03-08T10:28:40;15.82;;;12.35;;
13147;SDS011;6639;50.956;4.242;2024-03-08T10:31:08;13.65;;;12.13;;
13147;SDS011;6639;50.956;4.242;2024-03-08T10:33:37;13.95;;;11.45;;
13147;SDS011;6639;50.956;4.242;2024-03-08T10:36:05;16.52;;;13.38;;
13147;SDS011;6639;50.956;4.242;2024-03-08T10:38:34;14.55;;;12.32;;
13147;SDS011;6639;50.956;4.242;2024-03-08T10:41:04;16.70;;;13.52;;
13147;SDS011;6639;50.956;4.242;2024-03-08T10:43:32;15.35;;;12.15;;
13147;SDS011;6639;50.956;4.242;2024-03-08T10:46:13;13.68;;;12.27;;
13147;SDS011;6639;50.956;4.242;2024-03-08T10:48:49;14.05;;;12.10;;
13147;SDS011;6639;50.956;4.242;2024-03-08T10:51:18;14.27;;;12.65;;
13147;SDS011;6639;50.956;4.242;2024-03-08T10:53:46;14.68;;;12.23;;
13147;SDS011;6639;50.956;4.242;2024-03-08T10:56:16;13.00;;;11.70;;
13147;SDS011;6639;50.956;4.242;2024-03-08T10:58:43;14.32;;;12.65;;
13147;SDS011;6639;50.956;4.242;2024-03-08T11:01:12;14.55;;;11.80;;
13147;SDS011;6639;50.956;4.242;2024-03-08T11:03:46;13.73;;;12.20;;
13147;SDS011;6639;50.956;4.242;2024-03-08T11:06:18;13.68;;;11.75;;
13147;SDS011;6639;50.956;4.242;2024-03-08T11:08:49;14.63;;;12.65;;
13147;SDS011;6639;50.956;4.242;2024-03-08T11:11:23;14.73;;;12.43;;
13147;SDS011;6639;50.956;4.242;2024-03-08T11:13:55;14.48;;;11.95;;
13147;SDS011;6639;50.956;4.242;2024-03-08T11:16:38;13.00;;;11.70;;
13147;SDS011;6639;50.956;4.242;2024-03-08T11:22:03;13.23;;;11.82;;
13147;SDS011;6639;50.956;4.242;2024-03-08T11:24:36;14.02;;;12.13;;
13147;SDS011;6639;50.956;4.242;2024-03-08T11:30:04;13.55;;;12.15;;
13147;SDS011;6639;50.956;4.242;2024-03-08T11:32:36;13.57;;;11.70;;
13147;SDS011;6639;50.956;4.242;2024-03-08T11:35:07;13.35;;;11.95;;
13147;SDS011;6639;50.956;4.242;2024-03-08T11:37:44;15.35;;;12.48;;
13147;SDS011;6639;50.956;4.242;2024-03-08T11:40:12;12.70;;;11.18;;
13147;SDS011;6639;50.956;4.242;2024-03-08T11:42:43;14.20;;;12.02;;
13147;SDS011;6639;50.956;4.242;2024-03-08T11:45:11;15.63;;;12.85;;
13147;SDS011;6639;50.956;4.242;2024-03-08T11:47:38;15.02;;;12.10;;
13147;SDS011;6639;50.956;4.242;2024-03-08T11:50:10;13.52;;;11.60;;
13147;SDS011;6639;50.956;4.242;2024-03-08T11:52:37;13.52;;;11.73;;
13147;SDS011;6639;50.956;4.242;2024-03-08T11:55:04;14.13;;;11.85;;
13147;SDS011;6639;50.956;4.242;2024-03-08T11:57:32;13.43;;;12.00;;
13147;SDS011;6639;50.956;4.242;2024-03-08T12:00:02;13.85;;;12.32;;
13147;SDS011;6639;50.956;4.242;2024-03-08T12:02:32;15.10;;;12.02;;
13147;SDS011;6639;50.956;4.242;2024-03-08T12:05:02;13.13;;;11.65;;
13147;SDS011;6639;50.956;4.242;2024-03-08T12:07:32;13.23;;;11.82;;
13147;SDS011;6639;50.956;4.242;2024-03-08T12:10:15;14.60;;;12.07;;
13147;SDS011;6639;50.956;4.242;2024-03-08T12:12:43;13.57;;;11.95;;
13147;SDS011;6639;50.956;4.242;2024-03-08T12:15:11;15.50;;;11.48;;
13147;SDS011;6639;50.956;4.242;2024-03-08T12:17:39;13.70;;;11.45;;
13147;SDS011;6639;50.956;4.242;2024-03-08T12:20:11;13.35;;;11.95;;
13147;SDS011;6639;50.956;4.242;2024-03-08T12:22:42;13.23;;;11.70;;
13147;SDS011;6639;50.956;4.242;2024-03-08T12:25:09;17.05;;;13.13;;
13147;SDS011;6639;50.956;4.242;2024-03-08T12:27:38;14.90;;;12.80;;
13147;SDS011;6639;50.956;4.242;2024-03-08T12:32:48;12.82;;;11.27;;
13147;SDS011;6639;50.956;4.242;2024-03-08T12:35:19;13.80;;;12.02;;
13147;SDS011;6639;50.956;4.242;2024-03-08T12:37:50;13.73;;;12.27;;
13147;SDS011;6639;50.956;4.242;2024-03-08T12:40:18;14.30;;;12.65;;
13147;SDS011;6639;50.956;4.242;2024-03-08T12:42:46;13.05;;;11.45;;
13147;SDS011;6639;50.956;4.242;2024-03-08T12:45:14;12.80;;;11.52;;
13147;SDS011;6639;50.956;4.242;2024-03-08T12:47:41;16.25;;;12.15;;
13147;SDS011;6639;50.956;4.242;2024-03-08T12:50:09;14.40;;;11.52;;
13147;SDS011;6639;50.956;4.242;2024-03-08T12:52:37;13.43;;;11.30;;
13147;SDS011;6639;50.956;4.242;2024-03-08T12:55:05;12.73;;;11.30;;
13147;SDS011;6639;50.956;4.242;2024-03-08T12:57:33;15.82;;;12.43;;
13147;SDS011;6639;50.956;4.242;2024-03-08T13:00:03;14.20;;;11.98;;
13147;SDS011;6639;50.956;4.242;2024-03-08T13:02:37;13.77;;;11.95;;
13147;SDS011;6639;50.956;4.242;2024-03-08T13:05:04;14.82;;;12.77;;
13147;SDS011;6639;50.956;4.242;2024-03-08T13:07:34;12.52;;;11.23;;
13147;SDS011;6639;50.956;4.242;2024-03-08T13:10:02;13.77;;;11.57;;
13147;SDS011;6639;50.956;4.242;2024-03-08T13:12:31;13.65;;;11.73;;
13147;SDS011;6639;50.956;4.242;2024-03-08T13:15:00;13.68;;;11.82;;
13147;SDS011;6639;50.956;4.242;2024-03-08T13:17:27;15.18;;;11.95;;
13147;SDS011;6639;50.956;4.242;2024-03-08T13:19:54;13.63;;;11.85;;
13147;SDS011;6639;50.956;4.242;2024-03-08T13:22:24;13.10;;;11.50;;
13147;SDS011;6639;50.956;4.242;2024-03-08T13:24:51;15.32;;;12.15;;
13147;SDS011;6639;50.956;4.242;2024-03-08T13:27:18;12.85;;;11.48;;
13147;SDS011;6639;50.956;4.242;2024-03-08T13:29:48;13.88;;;11.75;;
13147;SDS011;6639;50.956;4.242;2024-03-08T13:32:15;14.10;;;11.23;;
13147;SDS011;6639;50.956;4.242;2024-03-08T13:34:45;14.93;;;12.20;;
13147;SDS011;6639;50.956;4.242;2024-03-08T13:37:16;12.80;;;11.10;;
13147;SDS011;6639;50.956;4.242;2024-03-08T13:39:43;14.00;;;11.27;;
13147;SDS011;6639;50.956;4.242;2024-03-08T13:42:10;12.38;;;10.85;;
13147;SDS011;6639;50.956;4.242;2024-03-08T13:44:43;13.02;;;11.60;;
13147;SDS011;6639;50.956;4.242;2024-03-08T13:47:12;14.43;;;11.55;;
13147;SDS011;6639;50.956;4.242;2024-03-08T13:49:39;13.63;;;11.70;;
13147;SDS011;6639;50.956;4.242;2024-03-08T13:52:08;12.45;;;11.15;;
13147;SDS011;6639;50.956;4.242;2024-03-08T13:54:35;14.48;;;11.38;;
13147;SDS011;6639;50.956;4.242;2024-03-08T13:57:04;13.85;;;11.10;;
13147;SDS011;6639;50.956;4.242;2024-03-08T13:59:32;13.32;;;10.88;;
13147;SDS011;6639;50.956;4.242;2024-03-08T14:02:00;12.82;;;11.52;;
13147;SDS011;6639;50.956;4.242;2024-03-08T14:04:28;14.93;;;11.45;;
13147;SDS011;6639;50.956;4.242;2024-03-08T14:06:56;14.73;;;12.35;;
13147;SDS011;6639;50.956;4.242;2024-03-08T14:09:28;16.17;;;10.98;;
13147;SDS011;6639;50.956;4.242;2024-03-08T14:11:56;12.18;;;10.88;;
13147;SDS011;6639;50.956;4.242;2024-03-08T14:14:23;12.50;;;10.88;;
13147;SDS011;6639;50.956;4.242;2024-03-08T14:16:51;13.05;;;10.75;;
13147;SDS011;6639;50.956;4.242;2024-03-08T14:19:20;12.30;;;10.95;;
13147;SDS011;6639;50.956;4.242;2024-03-08T14:21:48;14.48;;;10.65;;
13147;SDS011;6639;50.956;4.242;2024-03-08T14:24:18;12.13;;;10.90;;
13147;SDS011;6639;50.956;4.242;2024-03-08T14:26:45;14.52;;;10.80;;
13147;SDS011;6639;50.956;4.242;2024-03-08T14:29:13;12.40;;;10.63;;
13147;SDS011;6639;50.956;4.242;2024-03-08T14:31:41;12.48;;;11.18;;
13147;SDS011;6639;50.956;4.242;2024-03-08T14:34:08;12.60;;;10.30;;
13147;SDS011;6639;50.956;4.242;2024-03-08T14:36:35;12.90;;;11.43;;
13147;SDS011;6639;50.956;4.242;2024-03-08T14:39:04;13.27;;;11.02;;
13147;SDS011;6639;50.956;4.242;2024-03-08T14:41:32;14.25;;;11.32;;
13147;SDS011;6639;50.956;4.242;2024-03-08T14:43:59;13.10;;;10.82;;
13147;SDS011;6639;50.956;4.242;2024-03-08T14:46:26;12.82;;;11.43;;
13147;SDS011;6639;50.956;4.242;2024-03-08T14:48:53;15.10;;;10.85;;